Time;durP1;ratioP1;P1;durP2;ratioP2;P2;SDS_P1;SDS_P2;PMS_P1;PMS_P2;Temp;Humidity;BMP_temperature;BMP_pressure;BME280_temperature;BME280_humidity;BME280_pressure;Samples;Min_cycle;Max_cycle;Signal;HPM_P1;HPM_P2
2022/03/06 00:00:46;;;;;;;174.45;102.35;;;77.20;2227.20;;;;;;4938061;29;20121;-78
2022/03/06 00:03:13;;;;;;;150.43;88.03;;;77.20;2227.20;;;;;;4938164;29;20043;-75
2022/03/06 00:05:39;;;;;;;86.95;56.40;;;77.20;2227.20;;;;;;4938199;29;20082;-72
2022/03/06 00:08:05;;;;;;;208.80;121.03;;;77.20;2227.20;;;;;;4938127;29;20023;-73
2022/03/06 00:10:31;;;;;;;171.25;102.57;;;77.20;2227.20;;;;;;4938307;29;20113;-76
2022/03/06 00:12:57;;;;;;;175.73;103.75;;;77.20;2227.20;;;;;;4937945;29;20051;-74
2022/03/06 00:15:26;;;;;;;136.85;83.45;;;77.20;2227.20;;;;;;4955462;29;20102;-76
2022/03/06 00:17:53;;;;;;;82.85;53.92;;;77.10;2227.20;;;;;;4938199;29;20529;-76
2022/03/06 00:20:19;;;;;;;82.38;54.13;;;77.00;2227.20;;;;;;4937919;29;20078;-80
2022/03/06 00:22:45;;;;;;;82.95;54.10;;;77.10;2227.20;;;;;;4955247;29;20019;-77
2022/03/06 00:25:11;;;;;;;94.03;61.58;;;77.10;2227.20;;;;;;4938086;29;20461;-79
2022/03/06 00:27:37;;;;;;;72.80;51.15;;;77.00;2227.20;;;;;;4937921;29;20082;-76
2022/03/06 00:30:05;;;;;;;81.50;59.30;;;77.00;2227.20;;;;;;4955561;29;20031;-77
2022/03/06 00:32:31;;;;;;;69.90;49.35;;;77.00;2227.20;;;;;;4940149;29;20024;-80
2022/03/06 00:34:56;;;;;;;75.28;52.33;;;77.00;2227.20;;;;;;4941453;29;20577;-75
2022/03/06 00:37:22;;;;;;;85.03;59.28;;;76.90;2227.20;;;;;;4959355;29;20034;-74
2022/03/06 00:39:48;;;;;;;71.68;47.45;;;77.00;2227.20;;;;;;4941901;29;20354;-77
2022/03/06 00:42:14;;;;;;;77.18;52.15;;;77.00;2227.20;;;;;;4958319;29;20027;-76
2022/03/06 00:44:40;;;;;;;45.90;33.17;;;77.00;2227.20;;;;;;4958848;29;20027;-74
2022/03/06 00:47:06;;;;;;;54.45;39.35;;;77.00;2227.20;;;;;;4941707;29;20079;-76
2022/03/06 00:49:32;;;;;;;62.67;42.72;;;76.90;2227.20;;;;;;4958581;29;20027;-78
2022/03/06 00:51:59;;;;;;;57.55;38.78;;;76.90;2227.20;;;;;;4941621;29;20461;-76
2022/03/06 00:54:25;;;;;;;46.30;32.55;;;77.00;2227.20;;;;;;4941436;29;20034;-78
2022/03/06 00:56:51;;;;;;;61.08;40.15;;;77.00;2227.20;;;;;;4941366;29;20023;-77
2022/03/06 00:59:17;;;;;;;59.25;38.42;;;76.90;2227.20;;;;;;4941162;29;20134;-75
2022/03/06 01:01:43;;;;;;;49.65;33.58;;;76.90;2227.20;;;;;;4941023;29;20182;-78
2022/03/06 01:04:09;;;;;;;60.85;41.42;;;76.90;2227.20;;;;;;4941206;29;20034;-80
2022/03/06 01:06:35;;;;;;;53.92;36.92;;;76.90;2227.20;;;;;;4958600;29;20130;-77
2022/03/06 01:09:03;;;;;;;51.45;36.80;;;76.80;2227.20;;;;;;4940981;29;20385;-75
2022/03/06 01:11:29;;;;;;;55.67;39.70;;;76.80;2227.20;;;;;;4941187;29;20521;-75
2022/03/06 01:13:54;;;;;;;59.40;41.80;;;76.80;2227.20;;;;;;4958665;29;20059;-79
2022/03/06 01:16:20;;;;;;;61.05;40.97;;;76.90;2227.20;;;;;;4958062;29;20102;-76
2022/03/06 01:18:46;;;;;;;38.05;28.10;;;76.90;2227.20;;;;;;4958677;29;20035;-76
2022/03/06 01:21:12;;;;;;;37.65;27.50;;;76.90;2227.20;;;;;;4958555;29;20035;-78
2022/03/06 01:23:38;;;;;;;38.17;28.80;;;76.80;2227.20;;;;;;4957586;29;20027;-75
2022/03/06 01:26:04;;;;;;;29.65;20.55;;;76.80;1868.80;;;;;;4940912;29;20377;-78
2022/03/06 01:28:31;;;;;;;32.28;22.83;;;76.80;2227.20;;;;;;4940889;29;20028;-75
2022/03/06 01:30:57;;;;;;;39.85;28.40;;;76.80;2227.20;;;;;;4957647;29;20050;-76
2022/03/06 01:33:23;;;;;;;40.78;31.48;;;76.80;2227.20;;;;;;4940703;29;20062;-75
2022/03/06 01:35:48;;;;;;;32.17;23.25;;;76.90;2227.20;;;;;;4940798;29;20106;-75
2022/03/06 01:38:14;;;;;;;73.75;52.33;;;76.80;2227.20;;;;;;4940470;29;20450;-78
2022/03/06 01:40:40;;;;;;;64.15;43.63;;;76.80;2227.20;;;;;;4940681;29;20103;-80
2022/03/06 01:43:06;;;;;;;40.25;28.05;;;76.80;2227.20;;;;;;4940322;29;20023;-77
2022/03/06 01:45:32;;;;;;;27.48;21.77;;;76.80;2227.20;;;;;;4940476;29;20529;-78
2022/03/06 01:47:59;;;;;;;31.40;20.85;;;52.10;2227.20;;;;;;4957975;29;20027;-79
2022/03/06 01:50:32;;;;;;;23.48;17.92;;;76.80;2227.20;;;;;;4957805;29;20042;-76
2022/03/06 01:53:00;;;;;;;32.30;23.27;;;76.80;2227.20;;;;;;4957279;29;20106;-79
2022/03/06 01:55:26;;;;;;;42.40;28.05;;;76.90;2227.20;;;;;;4940442;29;20024;-80
2022/03/06 01:57:55;;;;;;;36.72;26.35;;;76.90;2227.20;;;;;;4942593;29;20057;-74
2022/03/06 02:00:27;;;;;;;54.30;35.88;;;76.90;2227.20;;;;;;4967349;29;20085;-76
2022/03/06 02:02:53;;;;;;;39.33;25.50;;;76.90;2227.20;;;;;;4940399;29;20162;-78
2022/03/06 02:05:19;;;;;;;33.28;22.98;;;76.90;2227.20;;;;;;4940220;29;20027;-77
2022/03/06 02:07:45;;;;;;;32.50;21.67;;;76.90;2227.20;;;;;;4939995;29;20031;-76
2022/03/06 02:10:13;;;;;;;31.42;22.63;;;76.90;2227.20;;;;;;4940215;29;20053;-78
2022/03/06 02:12:41;;;;;;;31.02;20.95;;;76.90;2227.20;;;;;;4939654;29;20034;-77
2022/03/06 02:15:09;;;;;;;23.05;17.35;;;76.90;2227.20;;;;;;4957078;29;20414;-78
2022/03/06 02:17:37;;;;;;;31.05;19.70;;;76.90;2227.20;;;;;;4957453;29;20105;-77
2022/03/06 02:20:11;;;;;;;35.00;23.13;;;76.80;2227.20;;;;;;4957010;29;20450;-77
2022/03/06 02:22:39;;;;;;;27.17;16.95;;;76.80;2227.20;;;;;;4957294;29;20031;-76
2022/03/06 02:25:08;;;;;;;20.90;14.43;;;76.80;2227.20;;;;;;4957020;29;20031;-78
2022/03/06 02:27:34;;;;;;;19.92;14.68;;;76.90;2227.20;;;;;;4939656;29;20405;-78
2022/03/06 02:30:13;;;;;;;25.67;17.75;;;76.90;2227.20;;;;;;4939764;29;20027;-76
2022/03/06 02:32:40;;;;;;;21.88;15.18;;;76.90;2227.20;;;;;;4939601;29;20027;-74
2022/03/06 02:35:08;;;;;;;20.30;14.40;;;77.00;2227.20;;;;;;4956635;29;20032;-75
2022/03/06 02:37:34;;;;;;;22.52;14.82;;;76.90;2227.20;;;;;;4956887;29;20019;-78
2022/03/06 02:40:02;;;;;;;24.83;17.55;;;76.90;2227.20;;;;;;4939400;29;20024;-76
2022/03/06 02:42:34;;;;;;;24.73;15.23;;;76.90;2227.20;;;;;;4956722;29;20098;-76
2022/03/06 02:45:06;;;;;;;25.42;16.00;;;76.90;2227.20;;;;;;4956715;29;20023;-76
2022/03/06 02:47:32;;;;;;;17.42;11.50;;;76.80;2227.20;;;;;;4956482;29;20037;-77
2022/03/06 02:49:57;;;;;;;71.93;37.88;;;52.10;2227.20;;;;;;4956336;29;20106;-76
2022/03/06 02:52:23;;;;;;;59.17;34.72;;;76.80;2227.20;;;;;;4956531;29;20023;-75
2022/03/06 02:54:49;;;;;;;27.52;17.25;;;52.10;2227.20;;;;;;4955532;28;20031;-75
2022/03/06 02:57:15;;;;;;;19.70;13.80;;;76.80;2227.20;;;;;;4939032;29;20027;-75
2022/03/06 02:59:41;;;;;;;25.50;16.20;;;76.80;2227.20;;;;;;4939044;29;20039;-75
2022/03/06 03:02:07;;;;;;;22.90;14.70;;;76.80;2227.20;;;;;;4938961;29;20027;-74
2022/03/06 03:04:33;;;;;;;24.55;15.38;;;76.80;2227.20;;;;;;4939084;29;20588;-75
2022/03/06 03:07:00;;;;;;;17.48;11.43;;;76.90;1894.40;;;;;;4939134;29;20121;-74
2022/03/06 03:09:26;;;;;;;16.23;10.27;;;76.90;2227.20;;;;;;4938751;29;20034;-75
2022/03/06 03:11:54;;;;;;;19.08;11.05;;;76.80;2176.00;;;;;;4955995;29;20027;-75
2022/03/06 03:14:21;;;;;;;18.05;12.23;;;76.80;2227.20;;;;;;4956327;29;20027;-75
2022/03/06 03:16:47;;;;;;;20.83;13.80;;;76.90;2227.20;;;;;;4938748;29;20027;-76
2022/03/06 03:19:13;;;;;;;16.52;11.48;;;76.80;2227.20;;;;;;4938858;29;20117;-76
2022/03/06 03:21:39;;;;;;;13.05;8.70;;;77.60;2227.20;;;;;;4955848;29;20071;-74
2022/03/06 03:24:05;;;;;;;13.50;9.18;;;76.80;2227.20;;;;;;4938866;29;20027;-74
2022/03/06 03:26:31;;;;;;;15.48;10.27;;;51.90;2227.20;;;;;;4938700;29;20030;-75
2022/03/06 03:28:58;;;;;;;13.02;10.00;;;76.90;2227.20;;;;;;4956217;29;20693;-76
2022/03/06 03:31:24;;;;;;;16.10;11.15;;;76.80;2227.20;;;;;;4956001;29;20031;-78
2022/03/06 03:33:49;;;;;;;12.98;9.60;;;76.90;1868.80;;;;;;4938943;29;20030;-78
2022/03/06 03:36:15;;;;;;;16.17;9.77;;;76.90;2227.20;;;;;;4938439;29;20457;-77
2022/03/06 03:38:41;;;;;;;15.27;10.50;;;76.80;2227.20;;;;;;4938709;29;20457;-77
2022/03/06 03:41:08;;;;;;;14.60;10.05;;;76.90;1996.80;;;;;;4955836;29;20023;-78
2022/03/06 03:43:34;;;;;;;15.40;9.25;;;52.00;2227.20;;;;;;4955221;29;20047;-77
2022/03/06 03:46:00;;;;;;;15.55;9.73;;;52.10;2227.20;;;;;;4938600;29;20038;-79
2022/03/06 03:48:27;;;;;;;15.90;9.68;;;76.80;2227.20;;;;;;4938670;29;20023;-79
2022/03/06 03:50:53;;;;;;;17.55;10.35;;;76.80;2227.20;;;;;;4938287;29;20461;-79
2022/03/06 03:53:20;;;;;;;16.02;11.18;;;76.90;2227.20;;;;;;4938469;29;20097;-80
2022/03/06 03:55:46;;;;;;;21.05;11.23;;;76.90;2227.20;;;;;;4956060;29;20123;-77
2022/03/06 03:58:12;;;;;;;16.48;10.60;;;76.80;2227.20;;;;;;4955100;29;20067;-78
2022/03/06 04:00:37;;;;;;;18.52;11.07;;;76.90;2227.20;;;;;;4938436;29;20062;-78
2022/03/06 04:03:03;;;;;;;16.92;10.95;;;76.80;2227.20;;;;;;4938438;29;20023;-79
2022/03/06 04:05:29;;;;;;;17.35;11.10;;;76.80;2227.20;;;;;;4956027;28;20023;-78
2022/03/06 04:07:55;;;;;;;20.13;12.43;;;76.80;2227.20;;;;;;4944811;28;20037;-78
2022/03/06 04:10:21;;;;;;;21.30;13.05;;;76.80;2227.20;;;;;;4944779;29;20039;-79
2022/03/06 04:12:47;;;;;;;18.67;12.55;;;76.80;2124.80;;;;;;4961696;29;20042;-80
2022/03/06 04:15:12;;;;;;;17.40;11.63;;;52.10;2227.20;;;;;;4961884;28;20384;-79
2022/03/06 04:17:38;;;;;;;18.73;11.18;;;76.80;2227.20;;;;;;4944451;29;20038;-79
2022/03/06 04:20:05;;;;;;;14.55;10.60;;;76.80;2227.20;;;;;;4944555;29;20030;-77
2022/03/06 04:22:30;;;;;;;16.27;10.88;;;76.80;2227.20;;;;;;4962197;28;20027;-78
2022/03/06 04:24:56;;;;;;;15.82;10.85;;;76.90;2227.20;;;;;;4944168;29;20089;-80
2022/03/06 04:27:22;;;;;;;14.85;9.98;;;76.80;2227.20;;;;;;4962140;28;20395;-77
2022/03/06 04:29:48;;;;;;;12.90;8.93;;;76.80;2227.20;;;;;;4944450;29;20104;-75
2022/03/06 04:32:14;;;;;;;15.80;9.98;;;52.00;2227.20;;;;;;4944311;29;20034;-79
2022/03/06 04:34:40;;;;;;;18.77;11.85;;;52.00;2227.20;;;;;;4944441;29;20405;-81
2022/03/06 04:37:06;;;;;;;19.85;12.73;;;52.00;2227.20;;;;;;4944466;28;20038;-79
2022/03/06 04:39:32;;;;;;;17.90;12.15;;;52.10;2227.20;;;;;;4944077;29;20114;-78
2022/03/06 04:41:58;;;;;;;17.50;11.77;;;52.10;2227.20;;;;;;4961682;29;20027;-79
2022/03/06 04:44:23;;;;;;;18.02;12.43;;;52.10;2227.20;;;;;;4961645;29;20037;-78
2022/03/06 04:46:50;;;;;;;15.05;10.27;;;52.10;2227.20;;;;;;4944112;29;20054;-77
2022/03/06 04:49:16;;;;;;;17.50;10.05;;;52.10;2227.20;;;;;;4944470;29;20106;-80
2022/03/06 04:51:42;;;;;;;11.82;8.77;;;76.80;2227.20;;;;;;4961708;29;20023;-81
2022/03/06 04:54:08;;;;;;;14.27;9.68;;;52.10;2227.20;;;;;;4961381;29;20023;-80
2022/03/06 04:56:35;;;;;;;12.20;9.13;;;76.80;2227.20;;;;;;4944281;29;20031;-83
2022/03/06 04:59:01;;;;;;;15.80;11.20;;;76.80;2227.20;;;;;;4943885;29;20078;-81
2022/03/06 05:01:27;;;;;;;14.93;10.35;;;76.80;2227.20;;;;;;4960932;29;20054;-79
2022/03/06 05:03:53;;;;;;;15.75;11.18;;;52.10;2227.20;;;;;;4961115;29;20528;-75
2022/03/06 05:06:19;;;;;;;15.65;11.27;;;52.10;2227.20;;;;;;4944315;29;20027;-78
2022/03/06 05:08:45;;;;;;;12.60;9.82;;;76.80;2227.20;;;;;;4943859;29;20480;-80
2022/03/06 05:11:10;;;;;;;15.02;10.55;;;76.80;2227.20;;;;;;4961721;28;20031;-80
2022/03/06 05:13:37;;;;;;;15.63;11.10;;;76.80;2227.20;;;;;;4944047;29;20051;-76
2022/03/06 05:16:03;;;;;;;15.70;9.85;;;52.00;2227.20;;;;;;4944110;29;20050;-78
2022/03/06 05:18:29;;;;;;;15.68;10.55;;;52.00;2227.20;;;;;;4941444;29;20361;-76
2022/03/06 05:20:55;;;;;;;14.80;10.20;;;52.10;2227.20;;;;;;4958265;29;20028;-81
2022/03/06 05:23:21;;;;;;;14.88;10.70;;;52.10;2227.20;;;;;;4941041;29;20020;-78
2022/03/06 05:25:47;;;;;;;16.98;11.15;;;52.10;2227.20;;;;;;4940996;29;20034;-78
2022/03/06 05:28:14;;;;;;;20.90;15.93;;;52.10;2227.20;;;;;;4957996;29;20027;-80
2022/03/06 05:30:41;;;;;;;19.00;13.63;;;52.10;2227.20;;;;;;4957822;29;20026;-77
2022/03/06 05:33:07;;;;;;;21.48;14.65;;;52.10;2227.20;;;;;;4957914;29;20465;-76
2022/03/06 05:35:33;;;;;;;19.20;13.07;;;76.80;2227.20;;;;;;4940562;29;20038;-77
2022/03/06 05:37:58;;;;;;;14.15;10.52;;;52.10;2227.20;;;;;;4958004;29;20027;-78
2022/03/06 05:40:25;;;;;;;17.00;12.27;;;52.10;2227.20;;;;;;4940797;29;20438;-76
2022/03/06 05:42:50;;;;;;;16.20;12.18;;;76.80;2227.20;;;;;;4957672;29;20109;-77
2022/03/06 05:45:16;;;;;;;16.52;12.68;;;52.10;2227.20;;;;;;4957824;29;20106;-78
2022/03/06 05:47:43;;;;;;;18.75;12.63;;;76.80;2227.20;;;;;;4957876;29;20074;-78
2022/03/06 05:50:10;;;;;;;19.92;11.90;;;76.80;2227.20;;;;;;4940158;29;20031;-76
2022/03/06 05:52:36;;;;;;;18.65;13.55;;;76.80;2227.20;;;;;;4957767;29;20023;-81
2022/03/06 05:55:03;;;;;;;23.90;18.30;;;76.80;2227.20;;;;;;4940578;29;20079;-78
2022/03/06 05:57:29;;;;;;;24.90;19.17;;;76.80;2227.20;;;;;;4957363;29;20030;-78
2022/03/06 05:59:55;;;;;;;18.55;13.40;;;52.10;2227.20;;;;;;4939989;29;20043;-77
2022/03/06 06:02:21;;;;;;;18.77;12.95;;;52.10;2227.20;;;;;;4940275;29;20078;-78
2022/03/06 06:04:48;;;;;;;30.52;18.73;;;52.10;2227.20;;;;;;4939954;29;20027;-80
2022/03/06 06:07:14;;;;;;;25.98;17.85;;;76.80;2227.20;;;;;;4940259;29;20032;-81
2022/03/06 06:09:40;;;;;;;37.55;22.60;;;76.80;2227.20;;;;;;4939876;29;20030;-78
2022/03/06 06:12:07;;;;;;;34.55;21.52;;;76.80;2227.20;;;;;;4957413;29;20023;-80
2022/03/06 06:14:33;;;;;;;29.10;18.60;;;52.10;2227.20;;;;;;4961143;29;20035;-73
2022/03/06 06:16:59;;;;;;;22.45;14.23;;;76.90;2227.20;;;;;;4963790;29;20023;-74
2022/03/06 06:19:25;;;;;;;49.05;24.40;;;76.90;2227.20;;;;;;4979808;29;20058;-76
2022/03/06 06:21:51;;;;;;;26.02;17.30;;;52.10;2227.20;;;;;;4957783;29;20027;-79
2022/03/06 06:24:17;;;;;;;22.65;14.63;;;77.00;2227.20;;;;;;4940107;29;20059;-77
2022/03/06 06:26:45;;;;;;;25.20;18.35;;;77.00;2227.20;;;;;;4940350;29;20067;-77
2022/03/06 06:29:12;;;;;;;28.75;20.70;;;77.00;2227.20;;;;;;4955803;28;20023;-78
2022/03/06 06:31:38;;;;;;;28.80;18.23;;;77.00;2227.20;;;;;;4939562;29;20019;-77
2022/03/06 06:34:04;;;;;;;31.33;19.40;;;77.10;2227.20;;;;;;4956640;29;20059;-77
2022/03/06 06:36:30;;;;;;;35.25;23.85;;;77.10;2227.20;;;;;;4956711;29;20397;-78
2022/03/06 06:38:56;;;;;;;33.10;26.50;;;77.00;2227.20;;;;;;4956649;29;20020;-79
2022/03/06 06:41:22;;;;;;;30.13;22.70;;;77.00;2227.20;;;;;;4957113;29;20398;-77
2022/03/06 06:43:48;;;;;;;22.77;16.38;;;77.10;2227.20;;;;;;4956386;29;20023;-78
2022/03/06 06:46:14;;;;;;;23.13;17.50;;;77.00;2227.20;;;;;;4956452;29;20102;-79
2022/03/06 06:48:39;;;;;;;31.05;19.85;;;77.10;2227.20;;;;;;4939179;29;20105;-78
2022/03/06 06:51:07;;;;;;;26.02;19.45;;;77.10;2227.20;;;;;;4956425;29;20023;-77
2022/03/06 06:53:33;;;;;;;25.30;18.27;;;77.10;2227.20;;;;;;4939155;29;20458;-76
2022/03/06 06:55:59;;;;;;;30.48;21.42;;;77.20;2227.20;;;;;;4939439;29;20028;-80
2022/03/06 06:58:24;;;;;;;28.08;19.13;;;77.10;2227.20;;;;;;4956287;29;20043;-77
2022/03/06 07:00:50;;;;;;;37.22;24.13;;;77.10;2227.20;;;;;;4956208;29;20019;-80
2022/03/06 07:03:16;;;;;;;40.00;26.70;;;77.10;2227.20;;;;;;4939205;29;20015;-76
2022/03/06 07:05:44;;;;;;;35.28;22.63;;;77.10;2227.20;;;;;;4938696;29;20461;-78
2022/03/06 07:08:11;;;;;;;36.00;24.38;;;77.10;2227.20;;;;;;4939109;29;20031;-81
2022/03/06 07:10:37;;;;;;;38.60;26.02;;;77.10;2227.20;;;;;;4956556;29;20034;-78
2022/03/06 07:13:02;;;;;;;39.42;28.17;;;77.10;2227.20;;;;;;4955722;29;20031;-76
2022/03/06 07:15:32;;;;;;;45.58;33.05;;;77.00;2227.20;;;;;;4939033;29;20086;-77
2022/03/06 07:17:58;;;;;;;45.38;32.92;;;77.00;2227.20;;;;;;4938986;29;20533;-79
2022/03/06 07:20:25;;;;;;;49.85;39.70;;;77.00;2227.20;;;;;;4938693;29;20074;-76
2022/03/06 07:22:51;;;;;;;47.10;30.92;;;77.00;2227.20;;;;;;4938795;29;20094;-81
2022/03/06 07:25:17;;;;;;;78.90;55.45;;;76.90;2227.20;;;;;;4938777;29;20031;-76
2022/03/06 07:27:42;;;;;;;75.95;47.80;;;77.00;2227.20;;;;;;4955724;29;20461;-77
2022/03/06 07:30:09;;;;;;;63.40;45.25;;;77.00;2048.00;;;;;;4938683;29;20026;-76
2022/03/06 07:32:47;;;;;;;58.00;38.85;;;77.00;2227.20;;;;;;4938713;29;20031;-74
2022/03/06 07:35:14;;;;;;;68.53;44.67;;;77.10;2227.20;;;;;;4938511;29;20035;-79
2022/03/06 07:37:40;;;;;;;57.28;40.17;;;77.10;2227.20;;;;;;4955947;29;20062;-80
2022/03/06 07:40:08;;;;;;;39.42;29.52;;;77.20;2227.20;;;;;;4938416;28;20035;-79
2022/03/06 07:42:35;;;;;;;46.92;30.38;;;77.10;2227.20;;;;;;4938468;29;20059;-79
2022/03/06 07:45:01;;;;;;;44.40;30.70;;;77.10;2227.20;;;;;;4938471;29;20350;-78
2022/03/06 07:47:27;;;;;;;47.88;34.20;;;77.00;2227.20;;;;;;4938683;29;20028;-77
2022/03/06 07:49:53;;;;;;;44.38;31.27;;;77.00;2227.20;;;;;;4938322;29;20034;-74
2022/03/06 07:52:18;;;;;;;39.88;30.00;;;77.10;2227.20;;;;;;4955774;29;20019;-77
2022/03/06 07:54:44;;;;;;;37.65;28.60;;;77.00;2227.20;;;;;;4938352;29;20027;-78
2022/03/06 07:57:10;;;;;;;37.28;24.98;;;77.10;2227.20;;;;;;4955818;29;20098;-75
2022/03/06 07:59:36;;;;;;;54.30;38.38;;;77.10;2227.20;;;;;;4938251;29;20043;-76
2022/03/06 08:02:02;;;;;;;55.25;37.65;;;77.10;2227.20;;;;;;4938312;29;20074;-78
2022/03/06 08:04:28;;;;;;;32.10;22.90;;;77.20;2227.20;;;;;;4938349;29;20023;-78
2022/03/06 08:06:54;;;;;;;32.42;23.63;;;77.10;2227.20;;;;;;4938400;29;20354;-80
2022/03/06 08:09:19;;;;;;;29.65;23.05;;;77.20;2227.20;;;;;;4938003;29;20027;-79
2022/03/06 08:11:45;;;;;;;31.85;22.13;;;77.20;2227.20;;;;;;4938561;29;20030;-74
2022/03/06 08:14:11;;;;;;;29.92;23.17;;;77.20;2227.20;;;;;;4938406;29;20066;-76
2022/03/06 08:16:38;;;;;;;29.90;21.10;;;77.20;2227.20;;;;;;4955222;29;20023;-77
2022/03/06 08:19:04;;;;;;;42.72;27.92;;;77.20;2227.20;;;;;;4938421;29;20023;-75
2022/03/06 08:21:30;;;;;;;38.35;29.13;;;77.20;2227.20;;;;;;4938386;29;20026;-77
2022/03/06 08:23:56;;;;;;;29.95;21.40;;;77.20;2227.20;;;;;;4938118;29;20035;-76
2022/03/06 08:26:23;;;;;;;42.38;27.90;;;102.40;2227.20;;;;;;4938282;29;20081;-78
2022/03/06 08:28:50;;;;;;;43.08;28.88;;;77.20;2227.20;;;;;;4938387;29;20031;-75
2022/03/06 08:31:16;;;;;;;49.83;35.33;;;77.20;2227.20;;;;;;4955193;29;20023;-75
2022/03/06 08:33:42;;;;;;;48.45;35.35;;;77.20;2227.20;;;;;;4938310;29;20362;-76
2022/03/06 08:36:08;;;;;;;48.90;37.72;;;77.20;2227.20;;;;;;4938214;29;20027;-78
2022/03/06 08:38:34;;;;;;;57.15;40.72;;;77.20;2227.20;;;;;;4955138;29;20031;-77
2022/03/06 08:40:59;;;;;;;44.63;32.85;;;77.30;2227.20;;;;;;4938188;29;20410;-77
2022/03/06 08:43:25;;;;;;;43.17;32.55;;;77.30;2227.20;;;;;;4939687;29;20028;-79
2022/03/06 08:45:51;;;;;;;47.42;35.75;;;77.20;2227.20;;;;;;4957343;29;20032;-77
2022/03/06 08:48:17;;;;;;;55.42;42.30;;;77.20;2227.20;;;;;;4940331;29;20038;-80
2022/03/06 08:50:43;;;;;;;91.80;66.00;;;77.30;2099.20;;;;;;4937902;29;20118;-79
2022/03/06 08:53:08;;;;;;;83.63;59.72;;;77.20;2227.20;;;;;;4939486;29;20450;-78
2022/03/06 08:55:34;;;;;;;141.68;101.15;;;77.20;2227.20;;;;;;4941596;29;20027;-77
2022/03/06 08:58:01;;;;;;;73.15;55.53;;;77.10;2227.20;;;;;;4958297;29;20482;-79
2022/03/06 09:00:26;;;;;;;50.28;37.42;;;77.20;2227.20;;;;;;4941560;29;20070;-78
2022/03/06 09:02:52;;;;;;;59.30;39.55;;;77.30;2227.20;;;;;;4958703;29;20062;-80
2022/03/06 09:05:20;;;;;;;43.13;32.72;;;77.30;2022.40;;;;;;4958456;29;20027;-75
2022/03/06 09:07:47;;;;;;;121.10;87.78;;;77.20;2227.20;;;;;;4941411;29;20054;-78
2022/03/06 09:10:13;;;;;;;65.70;50.83;;;77.20;2227.20;;;;;;4941287;29;20659;-78
2022/03/06 09:12:39;;;;;;;72.38;54.63;;;77.10;2227.20;;;;;;4941059;29;20114;-81
2022/03/06 09:15:06;;;;;;;57.60;44.75;;;77.10;2227.20;;;;;;4941225;29;20365;-79
2022/03/06 09:17:32;;;;;;;54.97;41.25;;;77.20;2227.20;;;;;;4958535;29;20520;-78
2022/03/06 09:19:58;;;;;;;47.35;34.03;;;77.30;2227.20;;;;;;4958077;29;20098;-82
2022/03/06 09:22:23;;;;;;;35.53;27.70;;;77.30;2227.20;;;;;;4941067;29;20056;-77
2022/03/06 09:24:49;;;;;;;41.30;29.35;;;77.30;2150.40;;;;;;4958325;29;20031;-76
2022/03/06 09:27:15;;;;;;;47.45;35.17;;;77.20;2227.20;;;;;;4940603;29;20504;-80
2022/03/06 09:29:41;;;;;;;45.25;34.60;;;77.30;2227.20;;;;;;4940974;29;20028;-81
2022/03/06 09:32:07;;;;;;;56.03;41.05;;;77.40;1971.20;;;;;;4940849;29;20030;-76
2022/03/06 09:34:33;;;;;;;56.70;41.28;;;77.40;2124.80;;;;;;4957781;29;20067;-77
2022/03/06 09:36:59;;;;;;;69.45;52.75;;;77.40;2227.20;;;;;;4940852;29;20078;-78
2022/03/06 09:39:25;;;;;;;82.88;71.10;;;77.30;2227.20;;;;;;4940914;29;20019;-80
2022/03/06 09:41:55;;;;;;;40.38;32.22;;;77.30;2227.20;;;;;;4957767;29;20098;-79
2022/03/06 09:44:24;;;;;;;36.13;29.10;;;77.20;2227.20;;;;;;4940667;29;20023;-81
2022/03/06 09:46:56;;;;;;;31.45;28.05;;;77.20;2227.20;;;;;;4957562;29;20039;-84
2022/03/06 09:49:23;;;;;;;27.75;22.02;;;77.10;2227.20;;;;;;4958015;29;20022;-80
2022/03/06 09:51:49;;;;;;;34.65;25.15;;;77.20;2227.20;;;;;;4940697;29;20027;-76
2022/03/06 09:54:16;;;;;;;25.50;20.38;;;77.20;2227.20;;;;;;4940214;29;20027;-76
2022/03/06 09:56:42;;;;;;;20.88;16.48;;;77.10;2227.20;;;;;;4940556;29;20023;-76
2022/03/06 09:59:09;;;;;;;58.15;35.40;;;77.30;2227.20;;;;;;4957690;29;20043;-77
2022/03/06 10:01:35;;;;;;;31.13;22.77;;;77.20;2227.20;;;;;;4939834;29;20070;-77
2022/03/06 10:04:25;;;;;;;36.15;27.05;;;77.00;2227.20;;;;;;4957439;28;20035;-75
2022/03/06 10:07:04;;;;;;;42.10;28.00;;;77.00;2227.20;;;;;;4957661;29;20074;-75
2022/03/06 10:09:32;;;;;;;46.47;34.78;;;77.10;2227.20;;;;;;4940041;29;20179;-75
2022/03/06 10:11:59;;;;;;;58.45;42.83;;;77.20;2227.20;;;;;;4957498;29;20027;-77
2022/03/06 10:14:37;;;;;;;58.95;46.55;;;77.30;2227.20;;;;;;4940118;29;20074;-75
2022/03/06 10:17:14;;;;;;;89.47;53.65;;;77.40;1843.20;;;;;;4957301;29;20110;-75
2022/03/06 10:20:10;;;;;;;52.47;36.75;;;77.40;2227.20;;;;;;4957265;29;20675;-74
2022/03/06 10:22:38;;;;;;;33.55;26.75;;;77.40;1971.20;;;;;;4938445;29;20051;-76
2022/03/06 10:25:10;;;;;;;46.33;37.88;;;77.50;2227.20;;;;;;4939731;29;20031;-74
2022/03/06 10:27:47;;;;;;;64.28;46.85;;;77.30;2227.20;;;;;;4957506;29;20023;-77
2022/03/06 10:30:25;;;;;;;92.47;72.68;;;77.50;2227.20;;;;;;4946241;29;20035;-73
2022/03/06 10:32:51;;;;;;;52.03;46.22;;;77.40;1894.40;;;;;;4964142;29;20031;-77
2022/03/06 10:35:17;;;;;;;44.63;38.30;;;77.40;2227.20;;;;;;4957347;29;20031;-78
2022/03/06 10:37:43;;;;;;;70.90;56.72;;;77.30;2227.20;;;;;;4939610;29;20069;-75
2022/03/06 10:40:14;;;;;;;90.40;60.67;;;77.30;2227.20;;;;;;4957214;29;20023;-75
2022/03/06 10:42:41;;;;;;;36.97;30.10;;;77.30;2227.20;;;;;;4956607;29;20023;-74
2022/03/06 10:45:23;;;;;;;36.50;30.00;;;77.30;2227.20;;;;;;4939518;29;20366;-73
2022/03/06 10:47:49;;;;;;;41.97;35.08;;;77.50;2227.20;;;;;;4939681;29;20386;-75
2022/03/06 10:50:25;;;;;;;35.80;31.15;;;77.70;2227.20;;;;;;4956072;29;20374;-76
2022/03/06 10:52:53;;;;;;;35.78;30.48;;;102.40;2227.20;;;;;;4956385;29;20023;-75
2022/03/06 10:55:35;;;;;;;43.67;31.83;;;102.50;2227.20;;;;;;4939351;29;20414;-74
2022/03/06 10:58:03;;;;;;;34.28;25.42;;;102.70;2227.20;;;;;;4956160;29;20178;-76
2022/03/06 11:00:29;;;;;;;29.50;23.10;;;102.60;2227.20;;;;;;4939344;29;20023;-74
2022/03/06 11:02:56;;;;;;;27.05;19.65;;;102.60;2227.20;;;;;;4956472;29;20023;-74
2022/03/06 11:05:27;;;;;;;17.15;13.10;;;102.60;2227.20;;;;;;4938880;29;20030;-72
2022/03/06 11:07:53;;;;;;;28.58;20.05;;;102.60;2227.20;;;;;;4939203;29;20457;-76
2022/03/06 11:10:19;;;;;;;49.72;34.47;;;102.70;2227.20;;;;;;4956234;29;20024;-75
2022/03/06 11:12:45;;;;;;;50.13;35.30;;;102.80;2227.20;;;;;;4955946;29;20524;-76
2022/03/06 11:15:11;;;;;;;19.10;14.85;;;103.20;2227.20;;;;;;4955615;28;20019;-78
2022/03/06 11:17:37;;;;;;;27.55;21.10;;;102.60;2227.20;;;;;;4938731;29;20447;-79
2022/03/06 11:20:03;;;;;;;22.73;19.40;;;102.70;2227.20;;;;;;4938939;29;20027;-81
2022/03/06 11:22:45;;;;;;;22.42;16.27;;;102.60;2227.20;;;;;;4956168;29;20105;-78
2022/03/06 11:25:17;;;;;;;29.98;18.15;;;102.70;2227.20;;;;;;4955883;29;20030;-76
2022/03/06 11:28:10;;;;;;;51.97;46.40;;;102.60;2227.20;;;;;;4938946;29;20392;-75
2022/03/06 11:30:36;;;;;;;24.80;19.52;;;102.50;2227.20;;;;;;4938682;29;20457;-80
2022/03/06 11:33:06;;;;;;;29.15;25.55;;;102.60;2227.20;;;;;;4948610;29;20035;-79
2022/03/06 11:35:41;;;;;;;51.40;44.03;;;102.60;2227.20;;;;;;4955461;28;20409;-79
2022/03/06 11:38:08;;;;;;;38.08;33.20;;;102.80;2227.20;;;;;;4954618;29;20024;-78
2022/03/06 11:40:50;;;;;;;22.83;19.98;;;102.50;2227.20;;;;;;4954062;29;20078;-76
2022/03/06 11:43:37;;;;;;;23.35;20.35;;;102.50;2227.20;;;;;;4954491;29;20019;-75
2022/03/06 11:46:14;;;;;;;30.00;22.85;;;102.50;2227.20;;;;;;4954229;29;20035;-74
2022/03/06 11:48:40;;;;;;;27.00;20.98;;;102.60;2227.20;;;;;;4954385;29;20027;-76
2022/03/06 11:51:15;;;;;;;55.88;42.10;;;102.50;2227.20;;;;;;4955545;28;20099;-76
2022/03/06 11:53:54;;;;;;;30.48;24.20;;;102.50;2227.20;;;;;;4955092;28;20019;-76
2022/03/06 11:56:50;;;;;;;28.67;23.00;;;102.70;2227.20;;;;;;4954453;29;20031;-75
2022/03/06 11:59:25;;;;;;;25.50;20.27;;;102.50;2227.20;;;;;;4953022;29;20054;-76
2022/03/06 12:01:57;;;;;;;28.65;23.17;;;102.60;2227.20;;;;;;4954022;29;20042;-75
2022/03/06 12:04:35;;;;;;;45.53;36.07;;;102.70;2227.20;;;;;;4954259;29;20027;-75
2022/03/06 12:07:03;;;;;;;40.78;32.15;;;102.90;2227.20;;;;;;4955324;28;20023;-78
2022/03/06 12:09:32;;;;;;;22.98;18.63;;;102.90;2227.20;;;;;;4954217;29;20023;-77